Time;durP1;ratioP1;P1;durP2;ratioP2;P2;SDS_P1;SDS_P2;PMS_P1;PMS_P2;Temp;Humidity;BMP_temperature;BMP_pressure;BME280_temperature;BME280_humidity;BME280_pressure;Samples;Min_cycle;Max_cycle;Signal;HPM_P1;HPM_P2
2023/09/11 00:02:06;;;;;;;;;;;;;;;20.45;100.00;99794.03;4952649;29;20407;-79
2023/09/11 00:04:32;;;;;;;;;;;;;;;20.50;100.00;99788.88;4952884;29;19922;-78
2023/09/11 00:06:57;;;;;;;;;;;;;;;20.55;100.00;99789.13;4935015;29;20328;-78
2023/09/11 00:09:22;;;;;;;;;;;;;;;20.58;100.00;99778.00;4952859;29;19923;-78
2023/09/11 00:11:47;;;;;;;;;;;;;;;20.62;100.00;99779.25;4952344;29;20331;-78
2023/09/11 00:14:13;;;;;;;;;;;;;;;20.53;100.00;99785.81;4952757;29;19922;-78
2023/09/11 00:16:39;;;;;;;;;;;;;;;20.45;100.00;99783.31;4952348;29;19929;-78
2023/09/11 00:19:04;;;;;;;;;;;;;;;20.48;100.00;99780.25;4951489;29;19961;-78
2023/09/11 00:21:29;;;;;;;;;;;;;;;20.53;100.00;99780.47;4951501;29;20004;-78
2023/09/11 00:23:55;;;;;;;;;;;;;;;20.44;100.00;99776.28;4935050;29;19923;-79
2023/09/11 00:26:20;;;;;;;;;;;;;;;20.33;100.00;99775.03;4935395;29;20387;-79
2023/09/11 00:28:50;;;;;;;;;;;;;;;20.35;100.00;99772.16;4953218;28;19923;-79
2023/09/11 00:31:16;;;;;;;;;;;;;;;20.39;100.00;99768.03;4955855;29;19922;-79
2023/09/11 00:33:41;;;;;;;;;;;;;;;20.41;100.00;99766.00;4938239;29;19923;-78
2023/09/11 00:36:06;;;;;;;;;;;;;;;20.30;100.00;99774.56;4949670;29;19928;-77
2023/09/11 00:38:32;;;;;;;;;;;;;;;20.16;100.00;99767.50;4955794;28;20005;-78
2023/09/11 00:40:57;;;;;;;;;;;;;;;20.19;100.00;99761.75;4955174;29;19926;-78
2023/09/11 00:43:22;;;;;;;;;;;;;;;20.03;100.00;99769.06;4955749;29;19922;-77
2023/09/11 00:45:50;;;;;;;;;;;;;;;20.15;100.00;99771.19;4955160;29;19977;-77
2023/09/11 00:48:17;;;;;;;;;;;;;;;20.01;100.00;99765.78;4955444;28;20311;-78
2023/09/11 00:50:44;;;;;;;;;;;;;;;20.13;100.00;99773.25;4969704;28;19922;-78
2023/09/11 00:53:10;;;;;;;;;;;;;;;20.17;100.00;99775.34;4970525;28;19955;-78
2023/09/11 00:55:36;;;;;;;;;;;;;;;20.24;100.00;99770.00;4955173;28;19929;-77
2023/09/11 00:58:01;;;;;;;;;;;;;;;20.14;100.00;99769.56;4953386;28;19934;-77
2023/09/11 01:00:26;;;;;;;;;;;;;;;20.00;100.00;99768.66;4952683;29;20375;-77
2023/09/11 01:02:52;;;;;;;;;;;;;;;19.85;100.00;99768.78;4953170;28;19934;-77
2023/09/11 01:05:17;;;;;;;;;;;;;;;19.83;100.00;99767.34;4954484;29;19923;-77
2023/09/11 01:07:43;;;;;;;;;;;;;;;19.82;100.00;99766.50;4970036;28;19923;-78
2023/09/11 01:10:09;;;;;;;;;;;;;;;19.89;100.00;99759.34;4955414;29;19922;-78
2023/09/11 01:12:35;;;;;;;;;;;;;;;19.86;100.00;99761.56;4955093;29;20438;-79
2023/09/11 01:15:03;;;;;;;;;;;;;;;19.86;100.00;99773.09;4954965;28;20013;-79
2023/09/11 01:17:29;;;;;;;;;;;;;;;19.86;100.00;99767.75;4969716;28;20371;-79
2023/09/11 01:20:21;;;;;;;;;;;;;;;19.80;100.00;99768.53;4969614;28;20005;-79
2023/09/11 01:23:02;;;;;;;;;;;;;;;19.79;100.00;99772.25;4966784;28;20207;-79
2023/09/11 01:25:33;;;;;;;;;;;;;;;19.75;100.00;99770.97;4955059;28;20002;-79
2023/09/11 01:28:06;;;;;;;;;;;;;;;19.76;100.00;99764.63;4954681;29;19981;-79
2023/09/11 01:30:32;;;;;;;;;;;;;;;19.84;100.00;99764.47;4955112;29;19930;-79
2023/09/11 01:32:58;;;;;;;;;;;;;;;19.82;100.00;99755.78;4954382;28;20376;-78
2023/09/11 01:35:23;;;;;;;;;;;;;;;19.81;100.00;99754.13;4954497;28;19928;-77
2023/09/11 01:37:48;;;;;;;;;;;;;;;19.84;100.00;99752.94;4954508;29;19977;-78
2023/09/11 01:40:14;;;;;;;;;;;;;;;19.81;100.00;99759.50;4953834;28;19950;-78
2023/09/11 01:42:44;;;;;;;;;;;;;;;19.73;100.00;99767.69;4954471;29;19930;-78
2023/09/11 01:45:13;;;;;;;;;;;;;;;19.68;100.00;99770.09;4950956;29;19923;-79
2023/09/11 01:47:38;;;;;;;;;;;;;;;19.53;100.00;99766.72;4936682;29;19923;-79
2023/09/11 01:50:05;;;;;;;;;;;;;;;19.61;100.00;99763.91;4953102;29;19922;-78
2023/09/11 01:52:32;;;;;;;;;;;;;;;19.62;100.00;99768.22;4937358;29;20415;-79
2023/09/11 01:54:58;;;;;;;;;;;;;;;19.64;100.00;99766.19;4953907;29;19929;-78
2023/09/11 01:57:27;;;;;;;;;;;;;;;19.72;100.00;99760.69;4954603;29;19923;-79
2023/09/11 01:59:53;;;;;;;;;;;;;;;19.75;100.00;99760.28;4936827;29;19949;-79
2023/09/11 02:02:18;;;;;;;;;;;;;;;19.78;100.00;99759.91;4921182;29;20016;-79
2023/09/11 02:04:44;;;;;;;;;;;;;;;19.79;100.00;99756.16;4953001;29;19923;-79
2023/09/11 02:07:09;;;;;;;;;;;;;;;19.75;100.00;99760.28;4954618;29;19922;-78
2023/09/11 02:09:34;;;;;;;;;;;;;;;19.73;100.00;99762.34;4954532;29;20047;-78
2023/09/11 02:12:00;;;;;;;;;;;;;;;19.76;100.00;99761.94;4954510;29;19930;-79
2023/09/11 02:14:26;;;;;;;;;;;;;;;19.51;100.00;99763.41;4954409;29;19930;-79
2023/09/11 02:16:51;;;;;;;;;;;;;;;19.56;100.00;99766.31;4955467;29;19940;-79
2023/09/11 02:19:17;;;;;;;;;;;;;;;19.59;100.00;99761.41;4959414;29;19957;-78
2023/09/11 02:21:43;;;;;;;;;;;;;;;19.59;100.00;99752.56;4959819;29;20021;-78
2023/09/11 02:24:08;;;;;;;;;;;;;;;19.55;100.00;99751.31;4961211;29;19930;-78
2023/09/11 02:26:33;;;;;;;;;;;;;;;19.48;100.00;99755.78;4961889;29;19922;-78
2023/09/11 02:28:59;;;;;;;;;;;;;;;19.37;100.00;99756.28;4962863;29;19946;-77
2023/09/11 02:31:26;;;;;;;;;;;;;;;19.22;100.00;99754.53;4946627;29;19922;-77
2023/09/11 02:33:51;;;;;;;;;;;;;;;19.19;100.00;99754.91;4956100;29;19929;-78
2023/09/11 02:36:16;;;;;;;;;;;;;;;19.25;100.00;99755.16;4939591;29;19922;-78
2023/09/11 02:38:42;;;;;;;;;;;;;;;19.32;100.00;99758.72;4958048;28;19922;-77
2023/09/11 02:41:07;;;;;;;;;;;;;;;19.33;100.00;99749.66;4957113;29;19922;-77
2023/09/11 02:43:32;;;;;;;;;;;;;;;19.33;100.00;99755.00;4954886;29;19923;-80
2023/09/11 02:45:58;;;;;;;;;;;;;;;19.31;100.00;99757.06;4953348;29;19929;-78
2023/09/11 02:48:23;;;;;;;;;;;;;;;19.27;100.00;99753.09;4953603;29;19922;-78
2023/09/11 02:50:48;;;;;;;;;;;;;;;19.31;100.00;99752.53;4952268;29;19922;-78
2023/09/11 02:53:16;;;;;;;;;;;;;;;19.28;100.00;99752.09;4936550;29;19929;-77
2023/09/11 02:55:42;;;;;;;;;;;;;;;19.15;100.00;99745.59;4936080;29;19934;-77
2023/09/11 02:58:07;;;;;;;;;;;;;;;18.99;100.00;99748.56;4953729;29;20304;-77
2023/09/11 03:00:34;;;;;;;;;;;;;;;18.96;100.00;99743.59;4953640;29;19988;-78
2023/09/11 03:03:01;;;;;;;;;;;;;;;18.92;100.00;99746.84;4935717;29;19933;-78
2023/09/11 03:05:26;;;;;;;;;;;;;;;18.81;100.00;99745.50;4936178;29;19923;-77
2023/09/11 03:07:52;;;;;;;;;;;;;;;18.87;100.00;99754.59;4936038;29;19929;-77
2023/09/11 03:10:17;;;;;;;;;;;;;;;18.87;100.00;99743.91;4952343;29;19985;-77
2023/09/11 03:12:42;;;;;;;;;;;;;;;18.73;100.00;99748.31;4935907;29;19922;-77
2023/09/11 03:15:08;;;;;;;;;;;;;;;18.86;100.00;99743.09;4953407;29;19930;-76
2023/09/11 03:17:33;;;;;;;;;;;;;;;18.88;100.00;99742.91;4951804;29;19990;-78
2023/09/11 03:19:58;;;;;;;;;;;;;;;18.94;100.00;99740.28;4953110;29;19925;-78
2023/09/11 03:22:25;;;;;;;;;;;;;;;18.93;100.00;99733.28;4952058;29;19970;-78
2023/09/11 03:24:50;;;;;;;;;;;;;;;19.02;100.00;99737.50;4935765;29;19970;-78
2023/09/11 03:27:16;;;;;;;;;;;;;;;18.99;100.00;99732.50;4936017;29;19919;-78
2023/09/11 03:29:41;;;;;;;;;;;;;;;18.88;100.00;99735.72;4952875;29;19938;-78
2023/09/11 03:32:06;;;;;;;;;;;;;;;18.76;100.00;99738.06;4952906;29;19918;-77
2023/09/11 03:34:32;;;;;;;;;;;;;;;18.78;100.00;99732.53;4942632;29;19977;-78
2023/09/11 03:36:57;;;;;;;;;;;;;;;18.76;100.00;99737.22;4951641;29;19922;-78
2023/09/11 03:39:23;;;;;;;;;;;;;;;18.75;100.00;99730.22;4953216;29;19922;-78
2023/09/11 03:41:48;;;;;;;;;;;;;;;18.60;100.00;99726.78;4952913;29;20408;-78
2023/09/11 03:44:13;;;;;;;;;;;;;;;18.57;100.00;99732.50;4951896;29;20376;-78
2023/09/11 03:46:39;;;;;;;;;;;;;;;18.64;100.00;99722.72;4952941;29;19923;-78
2023/09/11 03:49:04;;;;;;;;;;;;;;;18.60;100.00;99718.78;4952590;29;19929;-78
2023/09/11 03:51:29;;;;;;;;;;;;;;;18.66;100.00;99720.69;4951765;29;19923;-79
2023/09/11 03:53:57;;;;;;;;;;;;;;;18.62;100.00;99724.75;4952605;29;19930;-79
2023/09/11 03:56:25;;;;;;;;;;;;;;;18.61;100.00;99728.47;4951797;29;19930;-78
2023/09/11 03:58:51;;;;;;;;;;;;;;;18.57;100.00;99716.47;4967491;28;19922;-77
2023/09/11 04:01:17;;;;;;;;;;;;;;;18.51;100.00;99717.19;4948056;29;19965;-79
2023/09/11 04:03:42;;;;;;;;;;;;;;;18.25;100.00;99715.91;4953029;28;20399;-79
2023/09/11 04:06:08;;;;;;;;;;;;;;;18.07;100.00;99720.00;4953693;29;20360;-78
2023/09/11 04:08:33;;;;;;;;;;;;;;;18.05;100.00;99717.50;4955987;29;19923;-78
2023/09/11 04:10:58;;;;;;;;;;;;;;;18.12;100.00;99717.59;4956075;29;19929;-79
2023/09/11 04:13:24;;;;;;;;;;;;;;;18.14;100.00;99716.41;4955015;29;19974;-78
2023/09/11 04:15:49;;;;;;;;;;;;;;;18.13;100.00;99713.91;4970568;28;19922;-78
2023/09/11 04:18:14;;;;;;;;;;;;;;;18.11;100.00;99710.59;4955784;29;19922;-79
2023/09/11 04:20:40;;;;;;;;;;;;;;;18.21;100.00;99714.63;4970607;28;19933;-78
2023/09/11 04:23:05;;;;;;;;;;;;;;;18.28;100.00;99717.38;4954647;29;19923;-77
2023/09/11 04:25:31;;;;;;;;;;;;;;;18.35;100.00;99723.63;4970842;28;19926;-78
2023/09/11 04:27:57;;;;;;;;;;;;;;;18.42;100.00;99720.00;4954462;29;19927;-81
2023/09/11 04:30:22;;;;;;;;;;;;;;;18.41;100.00;99718.34;4954587;29;19930;-78
2023/09/11 04:32:48;;;;;;;;;;;;;;;18.36;100.00;99715.41;4970051;28;19922;-77
2023/09/11 04:35:15;;;;;;;;;;;;;;;18.27;100.00;99721.03;4963345;23;19914;-73
2023/09/11 04:37:40;;;;;;;;;;;;;;;18.24;100.00;99716.91;4932762;29;19934;-72
2023/09/11 04:40:06;;;;;;;;;;;;;;;18.28;100.00;99712.84;4934748;29;20372;-73
2023/09/11 04:42:32;;;;;;;;;;;;;;;18.34;100.00;99712.09;4935009;29;19931;-73
2023/09/11 04:45:01;;;;;;;;;;;;;;;18.42;100.00;99708.50;4935889;29;20397;-73
2023/09/11 04:47:32;;;;;;;;;;;;;;;18.39;100.00;99715.03;4935152;29;19965;-74
2023/09/11 04:49:58;;;;;;;;;;;;;;;18.46;100.00;99714.28;4934499;29;19922;-74
2023/09/11 04:52:24;;;;;;;;;;;;;;;18.49;100.00;99713.91;4935898;29;20021;-74
2023/09/11 04:54:50;;;;;;;;;;;;;;;18.50;100.00;99723.56;4934477;29;19922;-74
2023/09/11 04:57:16;;;;;;;;;;;;;;;18.32;100.00;99716.78;4934930;29;19930;-76
2023/09/11 04:59:42;;;;;;;;;;;;;;;18.42;100.00;99721.84;4934719;29;19923;-72
2023/09/11 05:02:09;;;;;;;;;;;;;;;18.49;100.00;99719.25;4931104;29;19930;-73
2023/09/11 05:04:34;;;;;;;;;;;;;;;18.33;100.00;99713.09;4932164;29;20017;-74
2023/09/11 05:06:59;;;;;;;;;;;;;;;18.26;100.00;99714.88;4931867;29;20021;-73
2023/09/11 05:09:25;;;;;;;;;;;;;;;18.22;100.00;99718.13;4934702;29;19954;-74
2023/09/11 05:11:50;;;;;;;;;;;;;;;18.24;100.00;99711.59;4934932;29;19923;-74
2023/09/11 05:14:15;;;;;;;;;;;;;;;18.32;100.00;99714.13;4936331;29;20372;-73
2023/09/11 05:16:41;;;;;;;;;;;;;;;18.27;100.00;99718.38;4933532;29;19929;-73
2023/09/11 05:19:06;;;;;;;;;;;;;;;18.31;100.00;99728.53;4934421;29;19922;-74
2023/09/11 05:21:32;;;;;;;;;;;;;;;18.20;100.00;99730.84;4934583;29;19930;-73
2023/09/11 05:23:57;;;;;;;;;;;;;;;18.15;100.00;99728.72;4933622;29;19935;-73
2023/09/11 05:26:23;;;;;;;;;;;;;;;18.11;100.00;99730.13;4933628;29;20359;-75
2023/09/11 05:28:48;;;;;;;;;;;;;;;18.21;100.00;99733.31;4933221;29;19933;-72
2023/09/11 05:31:14;;;;;;;;;;;;;;;18.22;100.00;99739.47;4935397;29;20387;-74
2023/09/11 05:33:39;;;;;;;;;;;;;;;18.16;100.00;99738.38;4935467;29;20332;-75
2023/09/11 05:36:05;;;;;;;;;;;;;;;18.16;100.00;99746.41;4935491;29;19973;-76
2023/09/11 05:38:30;;;;;;;;;;;;;;;18.15;100.00;99749.25;4934510;29;19923;-76
2023/09/11 05:40:56;;;;;;;;;;;;;;;18.22;100.00;99755.50;4934378;29;19923;-77
2023/09/11 05:43:21;;;;;;;;;;;;;;;18.20;100.00;99755.69;4935412;29;19927;-77
2023/09/11 05:45:46;;;;;;;;;;;;;;;18.20;100.00;99758.34;4934871;29;20372;-75
2023/09/11 05:48:12;;;;;;;;;;;;;;;18.20;100.00;99763.69;4935355;29;20364;-76
2023/09/11 05:50:38;;;;;;;;;;;;;;;18.12;100.00;99755.81;4931321;29;20009;-77
2023/09/11 05:53:03;;;;;;;;;;;;;;;18.10;100.00;99752.50;4934881;29;19958;-77
2023/09/11 05:55:28;;;;;;;;;;;;;;;18.11;100.00;99758.66;4935375;29;20001;-76
2023/09/11 05:57:54;;;;;;;;;;;;;;;18.17;100.00;99745.41;4934887;29;20295;-75
2023/09/11 06:00:19;;;;;;;;;;;;;;;18.28;100.00;99752.09;4934678;29;20463;-75
2023/09/11 06:02:46;;;;;;;;;;;;;;;18.31;100.00;99744.53;4934449;29;20360;-77
2023/09/11 06:05:11;;;;;;;;;;;;;;;18.38;100.00;99750.78;4934793;29;20287;-76
2023/09/11 06:07:37;;;;;;;;;;;;;;;18.48;100.00;99753.16;4934190;29;20021;-77
2023/09/11 06:10:02;;;;;;;;;;;;;;;18.55;100.00;99761.28;4934452;29;19979;-77
2023/09/11 06:12:30;;;;;;;;;;;;;;;18.58;100.00;99755.53;4934566;29;20017;-78
2023/09/11 06:14:55;;;;;;;;;;;;;;;18.55;100.00;99751.44;4934054;29;19954;-76
2023/09/11 06:17:21;;;;;;;;;;;;;;;18.63;100.00;99758.47;4934411;29;20422;-77
2023/09/11 06:19:46;;;;;;;;;;;;;;;18.68;100.00;99764.06;4934106;29;19930;-76
2023/09/11 06:22:11;;;;;;;;;;;;;;;18.67;100.00;99757.09;4934541;29;19923;-76
2023/09/11 06:24:36;;;;;;;;;;;;;;;18.69;100.00;99757.72;4934191;29;19927;-76
2023/09/11 06:27:06;;;;;;;;;;;;;;;18.75;100.00;99760.47;4933820;29;19938;-76
2023/09/11 06:29:31;;;;;;;;;;;;;;;18.77;100.00;99760.28;4934216;29;20010;-76
2023/09/11 06:31:57;;;;;;;;;;;;;;;18.82;100.00;99749.84;4934317;29;20339;-77
2023/09/11 06:34:22;;;;;;;;;;;;;;;18.84;100.00;99749.66;4934222;29;19923;-76
2023/09/11 06:36:48;;;;;;;;;;;;;;;18.89;100.00;99752.56;4933666;29;19926;-76
2023/09/11 06:39:13;;;;;;;;;;;;;;;18.95;100.00;99752.66;4924714;29;19934;-76
2023/09/11 06:41:40;;;;;;;;;;;;;;;19.07;100.00;99755.63;4934119;29;20010;-76
2023/09/11 06:44:06;;;;;;;;;;;;;;;19.12;100.00;99754.03;4933976;29;20261;-76
2023/09/11 06:46:34;;;;;;;;;;;;;;;19.12;100.00;99754.03;4934084;29;19990;-77
2023/09/11 06:48:59;;;;;;;;;;;;;;;19.21;100.00;99752.84;4933556;29;19974;-77
2023/09/11 06:51:26;;;;;;;;;;;;;;;19.28;100.00;99757.44;4924689;29;20010;-75
2023/09/11 06:53:53;;;;;;;;;;;;;;;19.28;100.00;99750.25;4924145;29;20038;-76
2023/09/11 06:56:18;;;;;;;;;;;;;;;19.32;100.00;99753.38;4924477;29;20322;-76
2023/09/11 06:58:45;;;;;;;;;;;;;;;19.33;100.00;99757.69;4933633;29;19927;-76
2023/09/11 07:01:10;;;;;;;;;;;;;;;19.40;100.00;99762.06;4924752;29;19923;-77
2023/09/11 07:03:35;;;;;;;;;;;;;;;19.46;100.00;99755.97;4933983;29;20013;-76
2023/09/11 07:06:02;;;;;;;;;;;;;;;19.54;100.00;99760.34;4933515;29;19933;-75
2023/09/11 07:08:28;;;;;;;;;;;;;;;19.62;100.00;99755.66;4923093;29;20423;-76
2023/09/11 07:10:54;;;;;;;;;;;;;;;19.73;100.00;99746.28;4933494;29;20147;-77
2023/09/11 07:13:19;;;;;;;;;;;;;;;19.81;100.00;99756.81;4934096;29;20385;-77
2023/09/11 07:15:53;;;;;;;;;;;;;;;19.93;100.00;99762.44;4933895;29;19939;-76
2023/09/11 07:18:18;;;;;;;;;;;;;;;20.04;100.00;99762.69;4935957;29;19923;-77
2023/09/11 07:20:46;;;;;;;;;;;;;;;20.15;100.00;99757.78;4934697;29;19927;-78
2023/09/11 07:23:12;;;;;;;;;;;;;;;20.24;100.00;99757.44;4933803;29;20284;-76
2023/09/11 07:25:37;;;;;;;;;;;;;;;20.35;100.00;99756.06;4933413;29;19923;-76
2023/09/11 07:28:03;;;;;;;;;;;;;;;20.40;100.00;99758.97;4933244;29;19946;-75
2023/09/11 07:30:29;;;;;;;;;;;;;;;20.43;100.00;99755.91;4933127;29;19927;-74
2023/09/11 07:32:54;;;;;;;;;;;;;;;20.49;100.00;99757.78;4933371;29;19990;-77
2023/09/11 07:35:20;;;;;;;;;;;;;;;20.59;100.00;99758.22;4933496;29;19978;-77
2023/09/11 07:37:45;;;;;;;;;;;;;;;20.68;100.00;99758.84;4943103;28;20017;-74
2023/09/11 07:40:11;;;;;;;;;;;;;;;20.73;100.00;99762.59;4945113;29;19923;-76
2023/09/11 07:42:36;;;;;;;;;;;;;;;20.78;100.00;99756.59;4948248;29;20017;-77
2023/09/11 07:45:02;;;;;;;;;;;;;;;20.76;100.00;99751.44;4945897;29;20300;-77
2023/09/11 07:47:28;;;;;;;;;;;;;;;20.77;100.00;99754.94;4929797;29;19929;-77
2023/09/11 07:49:53;;;;;;;;;;;;;;;20.82;100.00;99758.66;4946536;29;19933;-76
2023/09/11 07:52:19;;;;;;;;;;;;;;;20.89;100.00;99757.84;4946269;29;19929;-76
2023/09/11 07:54:44;;;;;;;;;;;;;;;21.00;100.00;99762.63;4948037;29;19928;-76
2023/09/11 07:57:09;;;;;;;;;;;;;;;21.10;100.00;99766.53;4945821;29;19922;-76
2023/09/11 07:59:35;;;;;;;;;;;;;;;21.17;100.00;99772.78;4948740;29;19923;-76
2023/09/11 08:02:01;;;;;;;;;;;;;;;21.27;100.00;99761.63;4944022;29;19940;-75
2023/09/11 08:04:26;;;;;;;;;;;;;;;21.32;100.00;99771.75;4946428;29;19923;-75
2023/09/11 08:06:52;;;;;;;;;;;;;;;21.42;100.00;99770.28;4945736;29;19930;-77
2023/09/11 08:09:17;;;;;;;;;;;;;;;21.47;100.00;99772.34;4947466;29;19992;-77
2023/09/11 08:11:42;;;;;;;;;;;;;;;21.53;100.00;99766.16;4944902;29;19929;-75
2023/09/11 08:14:08;;;;;;;;;;;;;;;21.61;100.00;99768.63;4927439;29;20009;-77
2023/09/11 08:16:34;;;;;;;;;;;;;;;21.72;100.00;99772.53;4947135;29;19927;-78
2023/09/11 08:18:59;;;;;;;;;;;;;;;21.80;100.00;99772.28;4945458;29;19934;-77
2023/09/11 08:21:25;;;;;;;;;;;;;;;21.87;100.00;99767.75;4946455;29;19923;-77
2023/09/11 08:23:50;;;;;;;;;;;;;;;21.93;100.00;99767.72;4946887;29;19922;-76
2023/09/11 08:26:16;;;;;;;;;;;;;;;22.00;100.00;99763.19;4944991;29;20296;-75
2023/09/11 08:28:41;;;;;;;;;;;;;;;22.06;100.00;99766.91;4947469;29;19970;-73
2023/09/11 08:31:07;;;;;;;;;;;;;;;22.15;100.00;99764.81;4943611;29;19929;-73
2023/09/11 08:33:32;;;;;;;;;;;;;;;22.21;100.00;99772.81;4927983;29;19954;-75
2023/09/11 08:35:57;;;;;;;;;;;;;;;22.25;100.00;99776.75;4943677;29;20033;-73
2023/09/11 08:38:23;;;;;;;;;;;;;;;22.29;100.00;99767.22;4936302;29;20359;-74
2023/09/11 08:40:49;;;;;;;;;;;;;;;22.33;100.00;99773.81;4936206;29;19977;-76
2023/09/11 08:43:14;;;;;;;;;;;;;;;22.38;100.00;99760.56;4936426;29;19923;-75
2023/09/11 08:45:40;;;;;;;;;;;;;;;22.42;100.00;99758.28;4935611;29;20285;-75
2023/09/11 08:48:09;;;;;;;;;;;;;;;22.50;100.00;99757.22;4933805;29;19970;-73
2023/09/11 08:50:35;;;;;;;;;;;;;;;22.60;100.00;99752.19;4926287;29;19936;-73
2023/09/11 08:53:01;;;;;;;;;;;;;;;22.69;100.00;99753.56;4935271;29;19923;-73
2023/09/11 08:55:31;;;;;;;;;;;;;;;22.75;100.00;99755.41;4935751;29;19930;-75
2023/09/11 08:57:59;;;;;;;;;;;;;;;22.82;100.00;99757.03;4935104;29;19946;-74
2023/09/11 09:00:27;;;;;;;;;;;;;;;22.92;100.00;99750.34;4930051;29;19938;-76
2023/09/11 09:02:53;;;;;;;;;;;;;;;22.96;100.00;99741.63;4921818;29;19982;-74
2023/09/11 09:05:19;;;;;;;;;;;;;;;23.05;100.00;99750.25;4936265;29;19918;-75
2023/09/11 09:07:46;;;;;;;;;;;;;;;23.12;100.00;99746.47;4935756;29;19934;-76
2023/09/11 09:10:11;;;;;;;;;;;;;;;23.18;100.00;99737.53;4936618;29;19923;-78
2023/09/11 09:12:38;;;;;;;;;;;;;;;23.24;100.00;99743.88;4935899;29;19925;-77
2023/09/11 09:15:03;;;;;;;;;;;;;;;23.26;100.00;99739.94;4935298;29;19954;-77
2023/09/11 09:17:29;;;;;;;;;;;;;;;23.35;100.00;99739.66;4935620;29;20360;-78
2023/09/11 09:19:54;;;;;;;;;;;;;;;23.43;100.00;99742.06;4935392;29;19923;-78
2023/09/11 09:22:19;;;;;;;;;;;;;;;23.51;100.00;99733.72;4926423;29;19923;-79
2023/09/11 09:24:49;;;;;;;;;;;;;;;23.57;100.00;99738.22;4935244;29;19945;-76
2023/09/11 09:27:15;;;;;;;;;;;;;;;23.63;100.00;99734.63;4926365;29;19926;-75
2023/09/11 09:29:41;;;;;;;;;;;;;;;23.66;100.00;99732.34;4935513;29;20389;-78
2023/09/11 09:32:08;;;;;;;;;;;;;;;23.73;100.00;99732.28;4934983;29;20009;-77
2023/09/11 09:34:34;;;;;;;;;;;;;;;23.79;100.00;99726.00;4942005;29;20405;-77
2023/09/11 09:37:00;;;;;;;;;;;;;;;23.85;100.00;99718.88;4935070;29;19927;-76
2023/09/11 09:39:28;;;;;;;;;;;;;;;23.91;100.00;99718.81;4935797;29;20403;-76
2023/09/11 09:41:53;;;;;;;;;;;;;;;23.98;100.00;99716.84;4935482;29;19950;-77
2023/09/11 09:44:31;;;;;;;;;;;;;;;24.07;100.00;99712.81;4936017;29;19990;-77
2023/09/11 09:47:05;;;;;;;;;;;;;;;24.12;100.00;99709.41;4935000;29;20056;-80
2023/09/11 09:49:32;;;;;;;;;;;;;;;24.18;100.00;99700.44;4934923;29;19922;-76
2023/09/11 09:51:58;;;;;;;;;;;;;;;24.23;100.00;99705.16;4934920;29;19927;-77
2023/09/11 09:54:39;;;;;;;;;;;;;;;24.27;100.00;99709.06;4935236;29;19933;-76
2023/09/11 09:57:04;;;;;;;;;;;;;;;24.37;100.00;99706.63;4935020;29;19938;-76
2023/09/11 09:59:30;;;;;;;;;;;;;;;24.47;100.00;99706.91;4935231;29;19923;-79
2023/09/11 10:01:55;;;;;;;;;;;;;;;24.52;100.00;99709.72;4934154;29;19962;-75
2023/09/11 10:04:22;;;;;;;;;;;;;;;24.57;100.00;99701.78;4934950;29;19927;-76
2023/09/11 10:06:53;;;;;;;;;;;;;;;24.59;100.00;99705.06;4934476;29;19977;-76
2023/09/11 10:09:19;;;;;;;;;;;;;;;24.62;100.00;99698.41;4934725;29;20013;-76
2023/09/11 10:11:44;;;;;;;;;;;;;;;24.66;100.00;99700.41;4933825;29;19927;-75
2023/09/11 10:14:10;;;;;;;;;;;;;;;24.69;100.00;99691.84;4933187;29;19930;-77
2023/09/11 10:16:36;;;;;;;;;;;;;;;24.73;100.00;99694.91;4934445;29;19978;-76
2023/09/11 10:19:02;;;;;;;;;;;;;;;24.76;100.00;99689.84;4934247;29;19922;-77
2023/09/11 10:21:28;;;;;;;;;;;;;;;24.80;100.00;99685.63;4934576;29;19922;-77
2023/09/11 10:23:54;;;;;;;;;;;;;;;24.88;100.00;99682.66;4934304;29;19919;-76
2023/09/11 10:26:31;;;;;;;;;;;;;;;25.01;100.00;99680.78;4925251;29;20080;-76
2023/09/11 10:29:00;;;;;;;;;;;;;;;25.06;100.00;99672.78;4934058;29;19965;-73
2023/09/11 10:31:31;;;;;;;;;;;;;;;25.12;100.00;99672.69;4934091;29;20372;-76
2023/09/11 10:33:57;;;;;;;;;;;;;;;25.21;100.00;99667.78;4933946;29;19930;-77
2023/09/11 10:36:23;;;;;;;;;;;;;;;25.27;100.00;99666.84;4938708;28;19923;-76
2023/09/11 10:38:52;;;;;;;;;;;;;;;25.35;100.00;99658.34;4944088;29;19929;-75
2023/09/11 10:41:17;;;;;;;;;;;;;;;25.40;100.00;99653.06;4942317;29;19968;-77
2023/09/11 10:43:45;;;;;;;;;;;;;;;25.44;100.00;99651.56;4944166;29;19929;-77
2023/09/11 10:46:19;;;;;;;;;;;;;;;25.48;100.00;99650.00;4937903;29;19922;-75
2023/09/11 10:48:44;;;;;;;;;;;;;;;25.60;100.00;99648.16;4938636;29;20256;-77
2023/09/11 10:51:10;;;;;;;;;;;;;;;25.65;100.00;99655.53;4945150;29;19923;-77
2023/09/11 10:53:35;;;;;;;;;;;;;;;25.72;100.00;99644.59;4942266;29;19923;-77
2023/09/11 10:56:02;;;;;;;;;;;;;;;25.74;100.00;99643.31;4942571;29;20454;-76
2023/09/11 10:58:28;;;;;;;;;;;;;;;25.75;100.00;99638.69;4943245;29;19945;-77
2023/09/11 11:00:55;;;;;;;;;;;;;;;25.77;100.00;99636.59;4942793;29;19979;-77
2023/09/11 11:03:20;;;;;;;;;;;;;;;25.79;100.00;99637.19;4943011;29;20246;-76
2023/09/11 11:05:47;;;;;;;;;;;;;;;25.83;100.00;99627.50;4945143;29;19931;-77
2023/09/11 11:08:16;;;;;;;;;;;;;;;25.90;100.00;99620.09;4942270;29;20399;-77
2023/09/11 11:10:44;;;;;;;;;;;;;;;25.94;100.00;99615.84;4937299;29;19923;-79
2023/09/11 11:13:11;;;;;;;;;;;;;;;25.99;100.00;99613.22;4931090;29;19923;-77
2023/09/11 11:15:36;;;;;;;;;;;;;;;26.17;100.00;99615.72;4939631;29;20436;-77
2023/09/11 11:18:13;;;;;;;;;;;;;;;26.25;100.00;99601.88;4942121;29;19930;-78
2023/09/11 11:21:11;;;;;;;;;;;;;;;26.35;100.00;99596.63;4939744;29;19927;-78
2023/09/11 11:23:52;;;;;;;;;;;;;;;26.42;100.00;99597.28;4905487;29;19927;-76
2023/09/11 11:26:18;;;;;;;;;;;;;;;26.57;98.58;99593.22;4943043;29;19930;-77
2023/09/11 11:28:45;;;;;;;;;;;;;;;26.69;97.21;99580.38;4923771;29;19945;-79
2023/09/11 11:31:17;;;;;;;;;;;;;;;26.79;97.46;99592.22;4938551;29;20383;-77
2023/09/11 11:33:44;;;;;;;;;;;;;;;26.97;94.63;99583.03;4937006;29;20013;-77
2023/09/11 11:36:11;;;;;;;;;;;;;;;27.08;94.48;99573.16;4932669;29;19929;-77
2023/09/11 11:38:37;;;;;;;;;;;;;;;27.17;95.59;99577.91;4934173;29;19998;-77
2023/09/11 11:41:03;;;;;;;;;;;;;;;27.29;96.46;99578.59;4921920;29;21276;-76
2023/09/11 11:43:29;;;;;;;;;;;;;;;27.45;96.32;99578.81;4933918;29;19927;-83
2023/09/11 11:45:55;;;;;;;;;;;;;;;27.59;96.04;99571.97;4934067;29;19926;-78
2023/09/11 11:48:20;;;;;;;;;;;;;;;27.67;96.51;99566.09;4933436;29;19929;-78
2023/09/11 11:50:46;;;;;;;;;;;;;;;27.77;96.10;99577.06;4933566;29;20013;-78
2023/09/11 11:53:15;;;;;;;;;;;;;;;27.86;96.03;99570.13;4933850;29;19929;-78
2023/09/11 11:55:41;;;;;;;;;;;;;;;27.99;96.18;99571.59;4933324;29;19944;-78
2023/09/11 11:58:09;;;;;;;;;;;;;;;28.13;96.03;99574.72;4933919;29;19929;-77
2023/09/11 12:00:37;;;;;;;;;;;;;;;28.30;95.04;99567.31;4933824;29;19926;-78
2023/09/11 12:03:03;;;;;;;;;;;;;;;28.50;93.98;99570.19;4917570;29;20064;-77
2023/09/11 12:05:29;;;;;;;;;;;;;;;28.69;91.51;99568.69;4933622;29;20022;-77
2023/09/11 12:07:54;;;;;;;;;;;;;;;28.84;88.85;99563.44;4933540;29;19926;-76
2023/09/11 12:10:20;;;;;;;;;;;;;;;28.95;90.20;99561.59;4933490;29;20512;-78
2023/09/11 12:12:45;;;;;;;;;;;;;;;29.07;91.07;99554.06;4922459;29;20420;-76
2023/09/11 12:15:10;;;;;;;;;;;;;;;29.16;89.73;99551.66;4933555;29;19946;-78
2023/09/11 12:17:43;;;;;;;;;;;;;;;29.20;88.48;99553.59;4933412;29;20295;-77
2023/09/11 12:20:27;;;;;;;;;;;;;;;29.21;87.22;99549.78;4939951;29;19923;-75
2023/09/11 12:22:52;;;;;;;;;;;;;;;29.29;87.41;99545.72;4931889;29;20458;-74
2023/09/11 12:25:18;;;;;;;;;;;;;;;29.41;88.32;99545.53;4935344;29;19923;-75
2023/09/11 12:27:45;;;;;;;;;;;;;;;29.55;87.07;99544.78;4936514;29;19937;-75
2023/09/11 12:30:11;;;;;;;;;;;;;;;29.66;84.13;99546.44;4934002;29;20372;-75
2023/09/11 12:32:38;;;;;;;;;;;;;;;29.80;83.65;99535.06;4931248;29;19923;-76
2023/09/11 12:35:04;;;;;;;;;;;;;;;29.81;82.94;99534.78;4934820;29;19934;-74